createdAt,value
2017-09-24T08:34:53.633Z,20
2017-09-24T08:35:19.097Z,20
2017-09-24T08:35:44.554Z,20
2017-09-24T08:36:10.004Z,16
2017-09-24T08:36:35.447Z,16
2017-09-24T08:37:00.918Z,16
2017-09-24T08:37:26.374Z,16
2017-09-24T08:38:49.769Z,16
2017-09-24T08:39:15.224Z,20
2017-09-24T08:39:40.682Z,20
2017-09-24T08:40:06.113Z,20
2017-09-24T08:40:31.578Z,20
2017-09-24T08:40:57.041Z,20
2017-09-24T08:41:22.504Z,20
2017-09-24T08:41:47.952Z,20
2017-09-24T08:42:13.401Z,132
2017-09-24T08:42:38.859Z,136
2017-09-24T08:43:04.326Z,140
2017-09-24T08:43:29.791Z,140
2017-09-24T08:43:55.230Z,144
2017-09-24T08:44:20.699Z,148
2017-09-24T08:44:46.153Z,152
2017-09-24T08:45:11.595Z,156
2017-09-24T08:45:37.050Z,160
2017-09-24T08:46:02.508Z,164
2017-09-24T08:46:27.956Z,164
2017-09-24T08:46:53.404Z,168
2017-09-24T08:47:18.865Z,168
2017-09-24T08:47:44.317Z,172
2017-09-24T08:48:09.782Z,176
2017-09-24T08:48:35.220Z,180
2017-09-24T08:49:00.668Z,188
2017-09-24T08:49:26.141Z,196
2017-09-24T08:49:51.598Z,200
2017-09-24T08:50:17.037Z,196
2017-09-24T08:50:42.499Z,200
2017-09-24T08:51:07.928Z,196
2017-09-24T08:51:33.452Z,192
2017-09-24T08:51:58.893Z,192
2017-09-24T08:52:24.352Z,192
2017-09-24T08:52:49.821Z,192
2017-09-24T08:53:15.270Z,192
2017-09-24T08:53:40.722Z,192
2017-09-24T08:54:06.172Z,196
2017-09-24T08:54:31.628Z,196
2017-09-24T08:54:57.082Z,196
2017-09-24T08:55:22.532Z,196
2017-09-24T08:55:47.990Z,200
2017-09-24T08:56:13.445Z,200
2017-09-24T08:56:38.894Z,200
2017-09-24T08:57:04.341Z,200
2017-09-24T08:57:29.799Z,204
2017-09-24T08:57:55.247Z,200
2017-09-24T08:58:20.725Z,196
2017-09-24T08:58:46.178Z,192
2017-09-24T08:59:11.633Z,192
2017-09-24T08:59:37.093Z,188
2017-09-24T09:00:02.532Z,184
2017-09-24T09:00:27.977Z,180
2017-09-24T09:00:53.426Z,172
2017-09-24T09:01:18.876Z,172
2017-09-24T09:01:44.320Z,172
2017-09-24T09:02:09.774Z,172
2017-09-24T09:02:35.218Z,168
2017-09-24T09:03:00.672Z,168
2017-09-24T09:03:26.130Z,164
2017-09-24T09:03:51.587Z,164
2017-09-24T09:04:17.032Z,164
2017-09-24T09:04:42.485Z,164
2017-09-24T09:05:07.941Z,164
2017-09-24T09:05:33.394Z,168
2017-09-24T09:05:58.850Z,168
2017-09-24T09:06:24.326Z,168
2017-09-24T09:06:49.788Z,168
2017-09-24T09:07:15.208Z,172
2017-09-24T09:07:40.699Z,172
2017-09-24T09:08:06.153Z,180
2017-09-24T09:08:31.608Z,184
2017-09-24T09:08:57.073Z,184
2017-09-24T09:09:22.531Z,192
2017-09-24T09:09:47.985Z,196
2017-09-24T09:10:13.430Z,200
2017-09-24T09:10:38.876Z,204
2017-09-24T09:11:04.353Z,208
2017-09-24T09:11:29.820Z,216
2017-09-24T09:11:55.290Z,220
2017-09-24T09:12:20.755Z,224
2017-09-24T09:12:46.189Z,232
2017-09-24T09:13:11.665Z,236
2017-09-24T09:13:37.111Z,240
2017-09-24T09:14:02.568Z,240
2017-09-24T09:14:28.021Z,236
2017-09-24T09:14:53.468Z,240
2017-09-24T09:15:18.924Z,240
2017-09-24T09:15:44.364Z,240
2017-09-24T09:16:09.807Z,240
2017-09-24T09:16:35.272Z,240
2017-09-24T09:17:00.716Z,240
2017-09-24T09:17:26.198Z,232
2017-09-24T09:17:51.630Z,228
2017-09-24T09:18:17.099Z,232
2017-09-24T09:18:42.559Z,232
2017-09-24T09:19:08.011Z,228
2017-09-24T09:19:33.467Z,228
2017-09-24T09:19:58.926Z,232
2017-09-24T09:20:24.408Z,228
2017-09-24T09:20:49.854Z,224
2017-09-24T09:21:15.308Z,216
2017-09-24T09:21:40.775Z,212
2017-09-24T09:22:06.229Z,208
2017-09-24T09:22:31.691Z,204
2017-09-24T09:22:57.167Z,200
2017-09-24T09:23:22.604Z,200
2017-09-24T09:23:48.082Z,196
2017-09-24T09:24:13.556Z,200
2017-09-24T09:24:38.998Z,200
2017-09-24T09:25:04.447Z,196
2017-09-24T09:25:29.916Z,196
2017-09-24T09:25:55.384Z,196
2017-09-24T09:26:20.857Z,196
2017-09-24T09:26:46.314Z,200
2017-09-24T09:27:11.781Z,196
2017-09-24T09:27:37.238Z,200
2017-09-24T09:28:02.662Z,200
2017-09-24T09:28:28.113Z,200
2017-09-24T09:28:53.576Z,200
2017-09-24T09:29:19.026Z,200
2017-09-24T09:29:44.475Z,200
2017-09-24T09:30:09.925Z,200
2017-09-24T09:30:35.408Z,204
2017-09-24T09:31:00.855Z,204
2017-09-24T09:31:26.271Z,204
2017-09-24T09:31:51.718Z,208
2017-09-24T09:32:17.170Z,208
2017-09-24T09:32:42.641Z,208
2017-09-24T09:33:08.102Z,208
2017-09-24T09:33:33.561Z,208
2017-09-24T09:33:59.022Z,204
2017-09-24T09:34:24.471Z,200
2017-09-24T09:34:49.926Z,204
2017-09-24T09:35:15.378Z,200
2017-09-24T09:35:40.847Z,200
2017-09-24T09:36:06.310Z,204
2017-09-24T09:36:31.754Z,208
2017-09-24T09:36:57.215Z,208
2017-09-24T09:37:22.650Z,208
2017-09-24T09:37:48.138Z,212
2017-09-24T09:38:13.599Z,212
2017-09-24T09:38:39.033Z,212
2017-09-24T09:39:04.502Z,216
2017-09-24T09:39:29.969Z,216
2017-09-24T09:39:55.419Z,212
2017-09-24T09:40:20.867Z,216
2017-09-24T09:40:46.328Z,212
2017-09-24T09:41:11.795Z,208
2017-09-24T09:41:37.272Z,204
2017-09-24T09:42:02.708Z,204
2017-09-24T09:42:28.170Z,196
2017-09-24T09:42:53.622Z,192
2017-09-24T09:43:19.090Z,184
2017-09-24T09:43:44.531Z,176
2017-09-24T09:44:09.979Z,176
2017-09-24T09:44:35.445Z,168
2017-09-24T09:45:00.921Z,168
2017-09-24T09:45:26.425Z,164
2017-09-24T09:45:51.832Z,164
2017-09-24T09:46:17.285Z,160
2017-09-24T09:46:42.809Z,160
2017-09-24T09:47:08.297Z,160
2017-09-24T09:47:33.760Z,156
2017-09-24T09:47:59.226Z,160
2017-09-24T09:48:24.693Z,160
2017-09-24T09:48:50.149Z,168
2017-09-24T09:49:15.597Z,172
2017-09-24T09:49:41.052Z,180
2017-09-24T09:50:06.505Z,200
2017-09-24T09:50:31.964Z,212
2017-09-24T09:50:57.423Z,208
2017-09-24T09:51:22.881Z,216
2017-09-24T09:51:48.365Z,228
2017-09-24T09:52:13.783Z,236
2017-09-24T09:52:39.253Z,232
2017-09-24T09:53:04.718Z,248
2017-09-24T09:53:30.159Z,240
2017-09-24T09:53:55.615Z,236
2017-09-24T09:54:21.068Z,220
2017-09-24T09:54:46.531Z,224
2017-09-24T09:55:12.027Z,228
2017-09-24T09:55:37.444Z,236
2017-09-24T09:56:02.912Z,244
2017-09-24T09:56:28.365Z,240
2017-09-24T09:56:53.840Z,240
2017-09-24T09:57:19.304Z,240
2017-09-24T09:57:44.759Z,244
2017-09-24T09:58:10.214Z,244
2017-09-24T09:58:35.662Z,244
2017-09-24T09:59:01.120Z,236
2017-09-24T09:59:26.594Z,240
2017-09-24T09:59:52.050Z,244
2017-09-24T10:00:17.506Z,244
2017-09-24T10:00:42.960Z,244
2017-09-24T10:01:08.403Z,236
2017-09-24T10:02:26.741Z,236
2017-09-24T10:02:52.199Z,236
2017-09-24T10:03:17.641Z,236
2017-09-24T10:03:43.092Z,236
2017-09-24T10:04:08.561Z,240
2017-09-24T10:05:16.702Z,240
2017-09-24T10:05:42.208Z,232
2017-09-24T10:06:07.660Z,232
2017-09-24T10:06:33.080Z,224
2017-09-24T10:06:58.542Z,216
2017-09-24T10:07:24.010Z,220
2017-09-24T10:07:49.439Z,220
2017-09-24T10:08:14.899Z,220
2017-09-24T10:08:40.378Z,220
2017-09-24T10:09:05.840Z,224
2017-09-24T10:09:31.260Z,224
2017-09-24T10:09:56.704Z,224
2017-09-24T10:10:22.162Z,220
2017-09-24T10:10:47.600Z,220
2017-09-24T10:11:13.082Z,220
2017-09-24T10:11:38.576Z,216
2017-09-24T10:12:03.992Z,212
2017-09-24T10:12:29.425Z,204
2017-09-24T10:12:54.868Z,212
2017-09-24T10:13:20.295Z,212
2017-09-24T10:13:45.755Z,208
2017-09-24T10:14:11.228Z,208
2017-09-24T10:14:36.722Z,216
2017-09-24T10:15:02.171Z,216
2017-09-24T10:15:27.608Z,212
2017-09-24T10:15:53.059Z,212
2017-09-24T10:16:18.517Z,208
2017-09-24T10:16:43.963Z,208
2017-09-24T10:17:09.423Z,208
2017-09-24T10:17:34.866Z,204
2017-09-24T10:18:00.337Z,204
2017-09-24T10:18:25.781Z,200
2017-09-24T10:18:51.230Z,196
2017-09-24T10:19:16.684Z,180
2017-09-24T10:19:42.140Z,188
2017-09-24T10:20:07.603Z,200
2017-09-24T10:20:33.057Z,200
2017-09-24T10:20:58.511Z,196
2017-09-24T10:21:23.966Z,200
2017-09-24T10:21:49.417Z,196
2017-09-24T10:22:14.878Z,200
2017-09-24T10:22:40.322Z,196
2017-09-24T10:23:05.789Z,200
2017-09-24T10:23:31.225Z,216
2017-09-24T10:24:44.465Z,204
2017-09-24T10:25:09.917Z,200
2017-09-24T10:25:35.387Z,196
2017-09-24T10:26:00.837Z,196
2017-09-24T10:26:26.277Z,196
2017-09-24T10:26:51.733Z,192
2017-09-24T10:27:17.193Z,188
2017-09-24T10:27:42.733Z,192
2017-09-24T10:28:08.159Z,188
2017-09-24T10:28:33.621Z,188
2017-09-24T10:28:59.071Z,188
2017-09-24T10:29:24.509Z,188
2017-09-24T10:29:49.987Z,188
2017-09-24T10:30:15.438Z,184
2017-09-24T10:30:40.886Z,188
2017-09-24T10:31:06.351Z,184
2017-09-24T10:31:31.811Z,180
2017-09-24T10:31:57.263Z,180
2017-09-24T10:32:22.711Z,184
2017-09-24T10:32:48.188Z,180
2017-09-24T10:33:13.638Z,184
2017-09-24T10:33:39.087Z,184
2017-09-24T10:34:04.552Z,180
2017-09-24T10:34:30.009Z,184
2017-09-24T10:34:55.473Z,180
2017-09-24T10:35:20.917Z,180
2017-09-24T10:35:46.383Z,176
2017-09-24T10:36:11.842Z,176
2017-09-24T10:36:37.295Z,176
2017-09-24T10:37:02.724Z,176
2017-09-24T10:37:28.170Z,180
2017-09-24T10:37:53.626Z,180
2017-09-24T10:38:19.094Z,176
2017-09-24T10:38:44.551Z,180
2017-09-24T10:39:10.012Z,176
2017-09-24T10:39:35.469Z,176
2017-09-24T10:40:00.970Z,172
2017-09-24T10:40:26.416Z,176
2017-09-24T10:40:51.875Z,176
2017-09-24T10:41:17.332Z,176
2017-09-24T10:41:42.788Z,176
2017-09-24T10:42:08.243Z,172
2017-09-24T10:42:33.698Z,172
2017-09-24T10:42:59.163Z,176
2017-09-24T10:43:24.620Z,172
2017-09-24T10:43:50.078Z,172
2017-09-24T10:44:15.547Z,168
2017-09-24T10:44:41.001Z,168
2017-09-24T10:45:06.465Z,168
2017-09-24T10:45:31.923Z,172
2017-09-24T10:45:57.374Z,172
2017-09-24T10:46:22.829Z,172
2017-09-24T10:46:48.272Z,172
2017-09-24T10:47:13.711Z,172
2017-09-24T10:47:39.171Z,172
2017-09-24T10:48:04.659Z,168
2017-09-24T10:48:30.091Z,168
2017-09-24T10:48:55.548Z,168
2017-09-24T10:49:20.995Z,168
2017-09-24T10:49:46.454Z,168
2017-09-24T10:50:11.916Z,168
2017-09-24T10:50:37.376Z,172
2017-09-24T10:51:02.831Z,172
2017-09-24T10:51:28.284Z,172
2017-09-24T10:51:53.758Z,172
2017-09-24T10:52:19.230Z,168
2017-09-24T10:52:44.684Z,168
2017-09-24T10:53:10.172Z,172
2017-09-24T10:53:35.652Z,172
2017-09-24T10:54:01.093Z,172
2017-09-24T10:54:26.544Z,172
2017-09-24T10:54:51.989Z,180
2017-09-24T10:55:17.453Z,176
2017-09-24T10:55:42.902Z,172
2017-09-24T10:56:08.347Z,172
2017-09-24T10:56:33.792Z,172
2017-09-24T10:56:59.252Z,184
2017-09-24T10:57:24.713Z,192
2017-09-24T10:58:32.852Z,180
2017-09-24T10:58:58.294Z,168
2017-09-24T10:59:23.751Z,160
2017-09-24T10:59:49.206Z,160
2017-09-24T11:00:14.669Z,164
2017-09-24T11:00:40.132Z,172
2017-09-24T11:01:05.588Z,192
2017-09-24T11:01:31.044Z,200
2017-09-24T11:01:56.504Z,208
2017-09-24T11:02:21.989Z,200
2017-09-24T11:02:47.446Z,188
2017-09-24T11:03:12.902Z,184
2017-09-24T11:03:38.356Z,180
2017-09-24T11:04:03.820Z,172
2017-09-24T11:04:29.271Z,168
2017-09-24T11:04:54.739Z,164
2017-09-24T11:05:20.193Z,160
2017-09-24T11:05:45.648Z,156
2017-09-24T11:06:11.091Z,156
2017-09-24T11:06:36.542Z,152
2017-09-24T11:07:02.009Z,148
2017-09-24T11:07:27.462Z,148
2017-09-24T11:07:52.918Z,152
2017-09-24T11:08:18.419Z,148
2017-09-24T11:08:43.868Z,152
2017-09-24T11:09:09.317Z,152
2017-09-24T11:09:34.774Z,152
2017-09-24T11:10:00.236Z,148
2017-09-24T11:10:25.699Z,124
2017-09-24T11:10:51.140Z,120
2017-09-24T11:11:16.592Z,128
2017-09-24T11:11:42.054Z,152
2017-09-24T11:12:07.515Z,152
2017-09-24T11:12:32.948Z,152
2017-09-24T11:12:58.403Z,148
2017-09-24T11:13:23.833Z,164
2017-09-24T11:13:49.295Z,164
2017-09-24T11:14:14.761Z,152
2017-09-24T11:14:40.220Z,152
2017-09-24T11:15:05.687Z,152
2017-09-24T11:15:31.145Z,156
2017-09-24T11:15:56.594Z,164
2017-09-24T11:16:22.051Z,172
2017-09-24T11:16:47.515Z,172
2017-09-24T11:17:12.960Z,172
2017-09-24T11:17:38.414Z,180
2017-09-24T11:18:03.866Z,192
2017-09-24T11:18:29.325Z,188
2017-09-24T11:18:54.776Z,168
2017-09-24T11:19:20.232Z,164
2017-09-24T11:19:45.685Z,164
2017-09-24T11:20:11.153Z,164
2017-09-24T11:20:36.602Z,160
2017-09-24T11:21:02.046Z,160
2017-09-24T11:21:27.500Z,152
2017-09-24T11:21:52.982Z,148
2017-09-24T11:22:18.401Z,148
2017-09-24T11:22:43.853Z,156
2017-09-24T11:23:09.299Z,164
2017-09-24T11:23:34.757Z,176
2017-09-24T11:24:00.215Z,144
2017-09-24T11:24:25.670Z,120
2017-09-24T11:24:51.145Z,104
2017-09-24T11:25:16.606Z,100
2017-09-24T11:25:42.053Z,100
2017-09-24T11:26:07.566Z,104
2017-09-24T11:26:33.028Z,100
2017-09-24T11:26:58.498Z,104
2017-09-24T11:27:23.948Z,108
2017-09-24T11:27:49.404Z,32
2017-09-24T11:28:14.877Z,140
2017-09-24T11:28:40.312Z,140
2017-09-24T11:29:05.788Z,136
2017-09-24T11:29:31.247Z,136
2017-09-24T11:29:56.734Z,132
2017-09-24T11:30:22.171Z,132
2017-09-24T11:30:47.635Z,132
2017-09-24T11:31:13.098Z,132
2017-09-24T11:31:38.557Z,136
2017-09-24T11:32:04.006Z,140
2017-09-24T11:32:29.465Z,140
2017-09-24T11:32:54.916Z,140
2017-09-24T11:33:20.393Z,136
2017-09-24T11:33:45.849Z,128
2017-09-24T11:34:11.348Z,128
2017-09-24T11:34:36.772Z,132
2017-09-24T11:35:02.236Z,132
2017-09-24T11:35:27.673Z,132
2017-09-24T11:35:53.133Z,136
2017-09-24T11:36:18.590Z,144
2017-09-24T11:36:45.503Z,148
2017-09-24T11:37:10.964Z,160
2017-09-24T11:37:36.416Z,172
2017-09-24T11:38:01.888Z,168
2017-09-24T11:38:27.344Z,148
2017-09-24T11:38:52.819Z,136
2017-09-24T11:39:18.277Z,132
2017-09-24T11:39:43.729Z,136
2017-09-24T11:40:09.188Z,148
2017-09-24T11:40:34.645Z,160
2017-09-24T11:41:00.112Z,148
2017-09-24T11:41:25.587Z,132
2017-09-24T11:41:50.992Z,128
2017-09-24T11:42:17.416Z,132
2017-09-24T11:42:42.867Z,136
2017-09-24T11:43:09.205Z,132
2017-09-24T11:45:43.013Z,124
2017-09-24T11:46:08.465Z,120
2017-09-24T11:47:26.783Z,116
2017-09-24T11:47:52.240Z,112
2017-09-24T11:48:17.701Z,116
2017-09-24T11:48:43.148Z,116
2017-09-24T11:49:08.652Z,112
2017-09-24T11:49:34.073Z,124
2017-09-24T11:49:59.541Z,120
2017-09-24T11:50:24.994Z,132
2017-09-24T11:50:50.455Z,128
2017-09-24T11:51:15.910Z,132
2017-09-24T11:51:41.352Z,132
2017-09-24T11:52:06.813Z,128
2017-09-24T11:52:32.262Z,128
2017-09-24T11:52:57.714Z,128
2017-09-24T11:53:23.170Z,128
2017-09-24T11:53:48.629Z,128
2017-09-24T11:54:14.076Z,128
2017-09-24T11:54:39.530Z,128
2017-09-24T12:01:28.036Z,180
2017-09-24T12:32:47.609Z,144
2017-09-24T12:33:13.059Z,140
2017-09-24T12:33:38.507Z,144
2017-09-24T12:34:03.964Z,144
2017-09-24T12:34:29.434Z,144
2017-09-24T12:34:54.892Z,144
2017-09-24T12:35:20.347Z,144
2017-09-24T12:35:45.801Z,144
2017-09-24T12:36:11.261Z,144
2017-09-24T12:36:36.719Z,144
2017-09-24T12:37:02.177Z,144
2017-09-24T12:37:27.638Z,144
2017-09-24T12:37:53.091Z,144
2017-09-24T12:38:18.545Z,148
2017-09-24T12:38:44.007Z,148
2017-09-24T12:39:09.463Z,148
2017-09-24T12:39:34.926Z,152
2017-09-24T12:40:00.388Z,148
2017-09-24T12:40:25.835Z,152
2017-09-24T12:40:51.298Z,152
2017-09-24T12:41:16.750Z,152
2017-09-24T12:41:42.203Z,152
2017-09-24T12:42:07.648Z,152
2017-09-24T12:42:33.122Z,152
2017-09-24T12:42:58.598Z,152
2017-09-24T12:43:24.058Z,156
2017-09-24T12:43:49.533Z,156
2017-09-24T12:44:14.997Z,156
2017-09-24T12:44:40.439Z,160
2017-09-24T12:45:05.886Z,164
2017-09-24T12:45:31.351Z,168
2017-09-24T12:45:56.806Z,168
2017-09-24T12:46:22.255Z,168
2017-09-24T12:46:47.709Z,164
2017-09-24T12:47:13.161Z,164
2017-09-24T12:47:38.626Z,168
2017-09-24T12:48:04.089Z,164
2017-09-24T12:48:29.540Z,164
2017-09-24T12:48:55.015Z,168
2017-09-24T12:49:20.477Z,168
2017-09-24T12:49:45.926Z,172
2017-09-24T12:50:11.387Z,172
2017-09-24T12:50:36.856Z,176
2017-09-24T12:51:02.320Z,176
2017-09-24T12:51:27.781Z,176
2017-09-24T12:51:53.238Z,176
2017-09-24T12:52:18.695Z,176
2017-09-24T12:52:44.144Z,176
2017-09-24T12:53:09.599Z,176
2017-09-24T12:53:35.038Z,184
2017-09-24T12:54:00.494Z,188
2017-09-24T12:54:25.958Z,188
2017-09-24T12:54:51.419Z,192
2017-09-24T12:55:16.888Z,192
2017-09-24T12:55:42.332Z,200
2017-09-24T12:56:07.810Z,204
2017-09-24T12:56:33.262Z,200
2017-09-24T12:56:58.718Z,192
2017-09-24T12:57:24.181Z,184
2017-09-24T12:57:49.639Z,184
2017-09-24T12:58:15.095Z,180
2017-09-24T12:58:40.547Z,168
2017-09-24T12:59:06.020Z,164
2017-09-24T12:59:31.465Z,156
2017-09-24T12:59:56.930Z,148
2017-09-24T13:00:22.389Z,148
2017-09-24T13:00:47.842Z,156
2017-09-24T13:01:13.281Z,148
2017-09-24T13:01:38.739Z,148
2017-09-24T13:02:04.192Z,148
2017-09-24T13:02:29.646Z,156
2017-09-24T13:02:55.108Z,168
2017-09-24T13:03:20.544Z,172
2017-09-24T13:03:45.998Z,172
2017-09-24T13:04:11.451Z,160
2017-09-24T13:04:36.914Z,160
2017-09-24T13:05:02.361Z,136
2017-09-24T13:05:27.810Z,132
2017-09-24T13:05:53.272Z,132
2017-09-24T13:06:18.736Z,124
2017-09-24T13:06:44.181Z,120
2017-09-24T13:07:09.641Z,116
2017-09-24T13:07:35.116Z,116
2017-09-24T13:08:00.627Z,108
2017-09-24T13:08:26.082Z,108
2017-09-24T13:08:51.540Z,108
2017-09-24T13:09:17.009Z,120
2017-09-24T13:09:42.464Z,132
2017-09-24T13:10:07.916Z,132
2017-09-24T13:10:33.370Z,148
2017-09-24T13:10:58.837Z,148
2017-09-24T13:11:24.292Z,144
2017-09-24T13:11:49.745Z,144
2017-09-24T13:12:15.210Z,128
2017-09-24T13:12:40.664Z,144
2017-09-24T13:13:06.124Z,156
2017-09-24T13:13:31.584Z,156
2017-09-24T13:13:57.040Z,156
2017-09-24T13:14:22.502Z,156
2017-09-24T13:14:47.964Z,156
2017-09-24T13:15:13.428Z,156
2017-09-24T13:15:38.889Z,152
2017-09-24T13:16:04.348Z,156
2017-09-24T13:16:29.806Z,156
2017-09-24T13:16:55.263Z,156
2017-09-24T13:17:20.723Z,156
2017-09-24T13:17:46.177Z,156
2017-09-24T13:18:11.636Z,156
2017-09-24T13:18:37.088Z,156
2017-09-24T13:19:02.548Z,156
2017-09-24T13:19:28.003Z,156
2017-09-24T13:19:53.457Z,160
2017-09-24T13:20:18.916Z,156
2017-09-24T13:20:44.372Z,156
2017-09-24T13:21:09.833Z,156
2017-09-24T13:21:35.284Z,156
2017-09-24T13:22:00.745Z,160
2017-09-24T13:22:26.197Z,156
2017-09-24T13:22:51.652Z,160
2017-09-24T13:23:17.118Z,156
2017-09-24T13:23:42.574Z,160
2017-09-24T13:24:08.037Z,160
2017-09-24T13:24:33.492Z,168
2017-09-24T13:24:58.950Z,172
2017-09-24T13:25:24.402Z,176
2017-09-24T13:25:49.864Z,160
2017-09-24T13:26:15.315Z,164
2017-09-24T13:26:40.778Z,160
2017-09-24T13:27:06.232Z,144
2017-09-24T13:27:31.684Z,152
2017-09-24T13:27:57.140Z,136
2017-09-24T13:28:22.602Z,108
2017-09-24T13:28:48.053Z,160
2017-09-24T13:29:13.497Z,160
2017-09-24T13:29:38.955Z,164
2017-09-24T13:30:04.406Z,164
2017-09-24T13:30:29.874Z,164
2017-09-24T13:30:55.368Z,164
2017-09-24T13:31:20.791Z,164
2017-09-24T13:31:46.239Z,164
2017-09-24T13:32:11.708Z,160
2017-09-24T13:32:37.173Z,160
2017-09-24T13:33:02.623Z,164
2017-09-24T13:33:28.080Z,160
2017-09-24T13:33:53.523Z,164
2017-09-24T13:34:19.009Z,156
2017-09-24T13:34:44.459Z,136
2017-09-24T13:35:09.919Z,124
2017-09-24T13:35:35.418Z,136
2017-09-24T13:36:00.866Z,104
2017-09-24T13:36:26.319Z,144
2017-09-24T13:36:51.782Z,136
2017-09-24T13:37:17.233Z,172
2017-09-24T13:37:42.687Z,172
2017-09-24T13:38:08.160Z,168
2017-09-24T13:38:33.618Z,172
2017-09-24T13:38:59.083Z,172
2017-09-24T13:39:24.556Z,168
2017-09-24T13:39:50.015Z,168
2017-09-24T13:40:15.457Z,168
2017-09-24T13:40:40.912Z,168
2017-09-24T13:41:06.368Z,172
2017-09-24T13:41:31.837Z,172
2017-09-24T13:41:57.292Z,172
2017-09-24T13:42:22.747Z,172
2017-09-24T13:42:48.190Z,172
2017-09-24T13:43:13.639Z,176
2017-09-24T13:43:39.103Z,180
2017-09-24T13:44:04.555Z,184
2017-09-24T13:44:30.012Z,188
2017-09-24T13:44:55.471Z,192
2017-09-24T13:45:20.930Z,204
2017-09-24T13:45:46.390Z,212
2017-09-24T13:46:11.849Z,208
2017-09-24T13:46:37.303Z,208
2017-09-24T13:47:02.761Z,204
2017-09-24T13:47:28.217Z,200
2017-09-24T13:47:53.676Z,196
2017-09-24T13:48:19.134Z,196
2017-09-24T13:48:44.573Z,200
2017-09-24T13:49:10.035Z,204
2017-09-24T13:49:35.492Z,208
2017-09-24T13:50:00.956Z,208
2017-09-24T13:50:26.406Z,204
2017-09-24T13:50:51.862Z,200
2017-09-24T13:51:17.297Z,200
2017-09-24T13:51:42.792Z,196
2017-09-24T13:52:08.216Z,192
2017-09-24T13:52:33.675Z,196
2017-09-24T13:52:59.119Z,196
2017-09-24T13:53:24.578Z,196
2017-09-24T13:53:50.032Z,192
2017-09-24T13:54:15.536Z,196
2017-09-24T13:54:40.976Z,192
2017-09-24T13:55:06.402Z,196
2017-09-24T13:55:32.218Z,196
2017-09-24T13:55:57.745Z,192
2017-09-24T13:56:23.147Z,192
2017-09-24T13:56:48.640Z,196
2017-09-24T13:57:14.118Z,192
2017-09-24T13:57:39.525Z,196
2017-09-24T13:58:04.984Z,196
2017-09-24T13:58:30.432Z,196
2017-09-24T13:58:55.876Z,196
2017-09-24T13:59:21.336Z,196
2017-09-24T13:59:46.782Z,196
2017-09-24T14:00:12.238Z,200
2017-09-24T14:00:37.691Z,196
2017-09-24T14:01:03.155Z,200
2017-09-24T14:01:28.606Z,196
2017-09-24T14:01:54.057Z,196
2017-09-24T14:02:19.517Z,160
2017-09-24T14:02:44.968Z,124
2017-09-24T14:03:10.447Z,148
2017-09-24T14:03:35.900Z,128
2017-09-24T14:04:01.369Z,112
2017-09-24T14:04:26.814Z,120
2017-09-24T14:04:52.266Z,136
2017-09-24T14:05:17.730Z,160
2017-09-24T14:05:43.181Z,236
2017-09-24T14:06:08.626Z,232
2017-09-24T14:06:34.069Z,224
2017-09-24T14:06:59.607Z,216
2017-09-24T14:07:25.063Z,212
2017-09-24T14:07:50.486Z,208
2017-09-24T14:08:15.948Z,208
2017-09-24T14:08:41.414Z,208
2017-09-24T14:09:06.876Z,204
2017-09-24T14:09:32.307Z,204
2017-09-24T14:09:57.751Z,204
2017-09-24T14:10:23.205Z,208
2017-09-24T14:10:48.672Z,208
2017-09-24T14:11:14.139Z,208
2017-09-24T14:11:39.594Z,204
2017-09-24T14:12:05.048Z,204
2017-09-24T14:12:30.494Z,200
2017-09-24T14:12:55.936Z,200
2017-09-24T14:13:21.396Z,188
2017-09-24T14:13:46.842Z,196
2017-09-24T14:14:12.322Z,184
2017-09-24T14:14:37.824Z,140
2017-09-24T14:15:03.281Z,204
2017-09-24T14:15:28.723Z,208
2017-09-24T14:15:54.164Z,208
2017-09-24T14:16:19.628Z,200
2017-09-24T14:16:45.066Z,208
2017-09-24T14:17:10.510Z,196
2017-09-24T14:17:35.948Z,204
2017-09-24T14:18:01.412Z,204
2017-09-24T14:18:26.866Z,204
2017-09-24T14:18:52.325Z,188
2017-09-24T14:19:17.769Z,120
2017-09-24T14:19:43.206Z,96
2017-09-24T14:20:08.677Z,96
2017-09-24T14:20:34.109Z,100
2017-09-24T14:20:59.564Z,196
2017-09-24T14:21:25.040Z,216
2017-09-24T14:21:50.489Z,220
2017-09-24T14:22:15.934Z,228
2017-09-24T14:22:41.381Z,236
2017-09-24T14:23:06.838Z,244
2017-09-24T14:23:32.295Z,248
2017-09-24T14:23:57.735Z,256
2017-09-24T14:24:23.188Z,256
2017-09-24T14:24:48.636Z,256
2017-09-24T14:25:14.091Z,260
2017-09-24T14:25:39.544Z,264
2017-09-24T14:26:05.010Z,268
2017-09-24T14:26:30.463Z,268
2017-09-24T14:26:55.913Z,268
2017-09-24T14:27:21.375Z,264
2017-09-24T14:27:46.829Z,260
2017-09-24T14:28:12.301Z,260
2017-09-24T14:28:37.753Z,256
2017-09-24T14:29:03.201Z,252
2017-09-24T14:29:28.654Z,252
2017-09-24T14:29:54.112Z,248
2017-09-24T14:30:19.554Z,252
2017-09-24T14:30:45.016Z,252
2017-09-24T14:31:10.477Z,252
2017-09-24T14:31:35.934Z,248
2017-09-24T14:32:01.379Z,252
2017-09-24T14:32:26.853Z,252
2017-09-24T14:32:52.299Z,252
2017-09-24T14:33:17.751Z,252
2017-09-24T14:33:43.202Z,252
2017-09-24T14:34:08.665Z,256
2017-09-24T14:34:34.121Z,264
2017-09-24T14:34:59.582Z,272
2017-09-24T14:35:25.034Z,272
2017-09-24T14:35:50.479Z,268
2017-09-24T14:36:15.945Z,268
2017-09-24T14:36:41.408Z,272
2017-09-24T14:37:06.878Z,268
2017-09-24T14:37:32.379Z,272
2017-09-24T14:37:57.846Z,272
2017-09-24T14:38:23.293Z,272
2017-09-24T14:38:48.764Z,264
2017-09-24T14:39:14.216Z,260
2017-09-24T14:39:39.664Z,256
2017-09-24T14:40:05.136Z,252
2017-09-24T14:40:30.585Z,248
2017-09-24T14:40:56.045Z,248
2017-09-24T14:41:21.505Z,244
2017-09-24T14:41:46.984Z,244
2017-09-24T14:42:12.444Z,248
2017-09-24T14:42:37.910Z,252
2017-09-24T14:43:03.353Z,252
2017-09-24T14:43:28.786Z,256
2017-09-24T14:43:54.256Z,260
2017-09-24T14:44:19.708Z,256
2017-09-24T14:44:45.166Z,260
2017-09-24T14:45:10.616Z,268
2017-09-24T14:45:36.071Z,240
2017-09-24T14:46:01.530Z,204
2017-09-24T14:46:26.975Z,176
2017-09-24T14:46:52.436Z,168
2017-09-24T14:47:17.887Z,176
2017-09-24T14:47:43.343Z,192
2017-09-24T14:48:08.805Z,168
2017-09-24T14:48:34.264Z,172
2017-09-24T14:48:59.745Z,160
2017-09-24T14:49:25.213Z,192
2017-09-24T14:49:50.670Z,184
2017-09-24T14:50:16.124Z,164
2017-09-24T14:50:41.569Z,176
2017-09-24T14:51:07.031Z,216
2017-09-24T14:51:32.512Z,236
2017-09-24T14:51:57.956Z,184
2017-09-24T14:53:21.415Z,240
2017-09-24T14:53:46.862Z,236
2017-09-24T14:54:12.306Z,228
2017-09-24T14:54:37.750Z,176
2017-09-24T14:55:03.214Z,128
2017-09-24T14:55:28.660Z,128
2017-09-24T14:55:54.119Z,124
2017-09-24T14:56:19.584Z,120
2017-09-24T14:56:45.051Z,120
2017-09-24T14:57:10.505Z,116
2017-09-24T14:57:35.957Z,120
2017-09-24T14:58:01.427Z,124
2017-09-24T14:58:26.884Z,124
2017-09-24T14:58:52.337Z,124
2017-09-24T14:59:17.825Z,124
2017-09-24T14:59:43.291Z,136
2017-09-24T15:00:08.744Z,204
2017-09-24T15:00:34.204Z,168
2017-09-24T15:00:59.670Z,168
2017-09-24T15:01:25.130Z,136
2017-09-24T15:01:50.584Z,180
2017-09-24T15:02:16.035Z,176
2017-09-24T15:02:41.500Z,180
2017-09-24T15:03:06.948Z,184
2017-09-24T15:03:32.405Z,156
2017-09-24T15:03:57.853Z,144
2017-09-24T15:04:23.296Z,132
2017-09-24T15:04:48.759Z,136
2017-09-24T15:05:14.223Z,196
2017-09-24T15:05:39.666Z,228
2017-09-24T15:06:05.124Z,220
2017-09-24T15:06:30.579Z,220
2017-09-24T15:06:56.057Z,216
2017-09-24T15:07:21.498Z,192
2017-09-24T15:07:46.951Z,156
2017-09-24T15:08:12.426Z,156
2017-09-24T15:08:37.885Z,156
2017-09-24T15:09:03.337Z,208
2017-09-24T15:09:28.805Z,184
2017-09-24T15:09:54.253Z,144
2017-09-24T15:10:19.703Z,116
2017-09-24T15:10:45.155Z,112